sensor_id;sensor_type;location;lat;lon;timestamp;P1;durP1;ratioP1;P2;durP2;ratioP2
72882;SDS011;61017;37.812;-122.286;2023-01-06T02:56:21;10.13;;;2.88;;
72882;SDS011;61017;37.812;-122.286;2023-01-06T03:00:34;11.75;;;2.60;;
72882;SDS011;61017;37.812;-122.286;2023-01-06T03:02:30;12.48;;;2.63;;
72882;SDS011;61017;37.812;-122.286;2023-01-06T03:04:23;11.80;;;2.58;;
72882;SDS011;61017;37.812;-122.286;2023-01-06T03:06:17;11.60;;;2.90;;
72882;SDS011;61017;37.812;-122.286;2023-01-06T03:08:13;12.23;;;2.30;;
72882;SDS011;61017;37.812;-122.286;2023-01-06T03:10:06;12.70;;;2.78;;
72882;SDS011;61017;37.812;-122.286;2023-01-06T03:12:05;9.32;;;2.50;;
72882;SDS011;61017;37.812;-122.286;2023-01-06T03:14:13;8.48;;;2.58;;
72882;SDS011;61017;37.812;-122.286;2023-01-06T03:16:05;10.07;;;2.38;;
72882;SDS011;61017;37.812;-122.286;2023-01-06T03:17:55;10.55;;;2.55;;
72882;SDS011;61017;37.812;-122.286;2023-01-06T03:19:45;10.18;;;2.90;;
72882;SDS011;61017;37.812;-122.286;2023-01-06T03:21:36;8.18;;;2.40;;
72882;SDS011;61017;37.812;-122.286;2023-01-06T03:23:31;10.23;;;2.50;;
72882;SDS011;61017;37.812;-122.286;2023-01-06T03:25:22;11.23;;;2.80;;
72882;SDS011;61017;37.812;-122.286;2023-01-06T03:27:12;9.63;;;2.72;;
72882;SDS011;61017;37.812;-122.286;2023-01-06T03:29:05;12.50;;;2.97;;
72882;SDS011;61017;37.812;-122.286;2023-01-06T03:31:07;11.82;;;2.70;;
72882;SDS011;61017;37.812;-122.286;2023-01-06T03:33:08;12.50;;;2.50;;
72882;SDS011;61017;37.812;-122.286;2023-01-06T03:37:28;14.68;;;2.90;;
72882;SDS011;61017;37.812;-122.286;2023-01-06T03:39:35;11.80;;;2.92;;
72882;SDS011;61017;37.812;-122.286;2023-01-06T03:41:38;11.25;;;2.45;;
72882;SDS011;61017;37.812;-122.286;2023-01-06T03:43:37;12.88;;;2.85;;
72882;SDS011;61017;37.812;-122.286;2023-01-06T03:50:35;11.57;;;2.88;;
72882;SDS011;61017;37.812;-122.286;2023-01-06T03:52:49;12.68;;;2.92;;
72882;SDS011;61017;37.812;-122.286;2023-01-06T03:54:56;14.98;;;3.17;;
72882;SDS011;61017;37.812;-122.286;2023-01-06T03:56:57;11.95;;;2.88;;
72882;SDS011;61017;37.812;-122.286;2023-01-06T03:58:57;9.45;;;3.00;;
72882;SDS011;61017;37.812;-122.286;2023-01-06T04:00:51;11.75;;;2.92;;
72882;SDS011;61017;37.812;-122.286;2023-01-06T04:02:42;8.65;;;2.80;;
72882;SDS011;61017;37.812;-122.286;2023-01-06T04:04:33;10.18;;;2.70;;
72882;SDS011;61017;37.812;-122.286;2023-01-06T04:06:25;11.07;;;2.90;;
72882;SDS011;61017;37.812;-122.286;2023-01-06T04:08:15;9.13;;;3.13;;
72882;SDS011;61017;37.812;-122.286;2023-01-06T04:10:06;8.65;;;2.90;;
72882;SDS011;61017;37.812;-122.286;2023-01-06T04:11:57;12.77;;;3.28;;
72882;SDS011;61017;37.812;-122.286;2023-01-06T04:13:47;11.43;;;2.90;;
72882;SDS011;61017;37.812;-122.286;2023-01-06T04:15:37;10.07;;;3.22;;
72882;SDS011;61017;37.812;-122.286;2023-01-06T04:17:27;9.95;;;3.00;;
72882;SDS011;61017;37.812;-122.286;2023-01-06T04:19:17;13.48;;;3.20;;
72882;SDS011;61017;37.812;-122.286;2023-01-06T04:21:07;10.55;;;3.30;;
72882;SDS011;61017;37.812;-122.286;2023-01-06T04:22:58;14.20;;;3.30;;
72882;SDS011;61017;37.812;-122.286;2023-01-06T04:24:48;12.98;;;3.60;;
72882;SDS011;61017;37.812;-122.286;2023-01-06T04:26:38;15.20;;;3.42;;
72882;SDS011;61017;37.812;-122.286;2023-01-06T04:28:28;11.52;;;3.42;;
72882;SDS011;61017;37.812;-122.286;2023-01-06T04:30:18;13.00;;;3.20;;
72882;SDS011;61017;37.812;-122.286;2023-01-06T04:32:08;9.95;;;3.42;;
72882;SDS011;61017;37.812;-122.286;2023-01-06T04:33:59;13.20;;;3.53;;
72882;SDS011;61017;37.812;-122.286;2023-01-06T04:35:49;12.23;;;3.45;;
72882;SDS011;61017;37.812;-122.286;2023-01-06T04:37:39;11.35;;;3.50;;
72882;SDS011;61017;37.812;-122.286;2023-01-06T04:39:29;11.55;;;3.33;;
72882;SDS011;61017;37.812;-122.286;2023-01-06T04:41:19;12.90;;;3.10;;
72882;SDS011;61017;37.812;-122.286;2023-01-06T04:43:12;9.88;;;3.08;;
72882;SDS011;61017;37.812;-122.286;2023-01-06T04:45:02;11.40;;;3.30;;
72882;SDS011;61017;37.812;-122.286;2023-01-06T04:46:52;13.38;;;3.83;;
72882;SDS011;61017;37.812;-122.286;2023-01-06T04:48:42;10.77;;;3.20;;
72882;SDS011;61017;37.812;-122.286;2023-01-06T04:50:33;12.00;;;3.45;;
72882;SDS011;61017;37.812;-122.286;2023-01-06T04:52:23;13.68;;;3.30;;
72882;SDS011;61017;37.812;-122.286;2023-01-06T04:54:13;10.52;;;3.50;;
72882;SDS011;61017;37.812;-122.286;2023-01-06T04:56:04;14.95;;;3.58;;
72882;SDS011;61017;37.812;-122.286;2023-01-06T04:57:56;12.27;;;3.30;;
72882;SDS011;61017;37.812;-122.286;2023-01-06T04:59:46;13.35;;;3.38;;
72882;SDS011;61017;37.812;-122.286;2023-01-06T05:01:36;13.40;;;3.53;;
72882;SDS011;61017;37.812;-122.286;2023-01-06T05:03:27;11.70;;;3.53;;
72882;SDS011;61017;37.812;-122.286;2023-01-06T05:05:18;11.00;;;3.40;;
72882;SDS011;61017;37.812;-122.286;2023-01-06T05:07:07;13.00;;;3.95;;
72882;SDS011;61017;37.812;-122.286;2023-01-06T05:08:58;10.82;;;3.20;;
72882;SDS011;61017;37.812;-122.286;2023-01-06T05:10:48;11.20;;;3.15;;
72882;SDS011;61017;37.812;-122.286;2023-01-06T05:12:38;10.65;;;3.72;;
72882;SDS011;61017;37.812;-122.286;2023-01-06T05:14:28;9.32;;;3.25;;
72882;SDS011;61017;37.812;-122.286;2023-01-06T05:16:32;9.85;;;3.58;;
72882;SDS011;61017;37.812;-122.286;2023-01-06T05:20:12;13.48;;;3.50;;
72882;SDS011;61017;37.812;-122.286;2023-01-06T05:22:02;12.57;;;3.83;;
72882;SDS011;61017;37.812;-122.286;2023-01-06T05:23:53;10.57;;;3.72;;
72882;SDS011;61017;37.812;-122.286;2023-01-06T05:25:43;11.10;;;3.47;;
72882;SDS011;61017;37.812;-122.286;2023-01-06T05:27:33;12.07;;;3.97;;
72882;SDS011;61017;37.812;-122.286;2023-01-06T05:29:23;10.40;;;3.33;;
72882;SDS011;61017;37.812;-122.286;2023-01-06T05:31:14;10.93;;;3.15;;
72882;SDS011;61017;37.812;-122.286;2023-01-06T05:33:04;13.55;;;3.65;;
72882;SDS011;61017;37.812;-122.286;2023-01-06T05:34:55;12.18;;;3.55;;
72882;SDS011;61017;37.812;-122.286;2023-01-06T05:36:45;12.48;;;3.50;;
72882;SDS011;61017;37.812;-122.286;2023-01-06T05:38:35;10.02;;;3.25;;
72882;SDS011;61017;37.812;-122.286;2023-01-06T05:40:26;11.35;;;3.42;;
72882;SDS011;61017;37.812;-122.286;2023-01-06T05:42:17;12.13;;;3.78;;
72882;SDS011;61017;37.812;-122.286;2023-01-06T05:44:07;9.60;;;3.22;;
72882;SDS011;61017;37.812;-122.286;2023-01-06T05:45:57;11.38;;;3.50;;
72882;SDS011;61017;37.812;-122.286;2023-01-06T05:47:47;12.07;;;3.30;;
72882;SDS011;61017;37.812;-122.286;2023-01-06T05:49:37;12.23;;;3.20;;
72882;SDS011;61017;37.812;-122.286;2023-01-06T05:51:27;10.43;;;3.40;;
72882;SDS011;61017;37.812;-122.286;2023-01-06T05:53:17;12.52;;;3.20;;
72882;SDS011;61017;37.812;-122.286;2023-01-06T05:55:07;9.07;;;3.25;;
72882;SDS011;61017;37.812;-122.286;2023-01-06T05:56:58;13.68;;;3.58;;
72882;SDS011;61017;37.812;-122.286;2023-01-06T05:58:49;12.52;;;3.53;;
72882;SDS011;61017;37.812;-122.286;2023-01-06T06:00:40;12.00;;;3.50;;
72882;SDS011;61017;37.812;-122.286;2023-01-06T06:02:30;13.63;;;3.83;;
72882;SDS011;61017;37.812;-122.286;2023-01-06T06:04:21;9.63;;;3.67;;
72882;SDS011;61017;37.812;-122.286;2023-01-06T06:06:11;12.35;;;3.35;;
72882;SDS011;61017;37.812;-122.286;2023-01-06T06:08:01;11.60;;;3.58;;
72882;SDS011;61017;37.812;-122.286;2023-01-06T06:09:51;11.23;;;3.47;;
72882;SDS011;61017;37.812;-122.286;2023-01-06T06:11:41;10.60;;;3.60;;
72882;SDS011;61017;37.812;-122.286;2023-01-06T06:13:31;10.40;;;3.22;;
72882;SDS011;61017;37.812;-122.286;2023-01-06T06:15:22;10.80;;;3.38;;
72882;SDS011;61017;37.812;-122.286;2023-01-06T06:17:12;13.05;;;3.45;;
72882;SDS011;61017;37.812;-122.286;2023-01-06T06:19:02;14.20;;;3.78;;
72882;SDS011;61017;37.812;-122.286;2023-01-06T06:20:52;11.40;;;3.33;;
72882;SDS011;61017;37.812;-122.286;2023-01-06T06:22:47;10.10;;;3.30;;
72882;SDS011;61017;37.812;-122.286;2023-01-06T06:24:40;10.40;;;3.30;;
72882;SDS011;61017;37.812;-122.286;2023-01-06T06:26:30;10.90;;;3.47;;
72882;SDS011;61017;37.812;-122.286;2023-01-06T06:28:20;10.93;;;3.45;;
72882;SDS011;61017;37.812;-122.286;2023-01-06T06:30:11;13.82;;;3.22;;
72882;SDS011;61017;37.812;-122.286;2023-01-06T06:32:01;10.35;;;3.28;;
72882;SDS011;61017;37.812;-122.286;2023-01-06T06:33:53;11.98;;;3.42;;
72882;SDS011;61017;37.812;-122.286;2023-01-06T06:35:44;11.90;;;3.63;;
72882;SDS011;61017;37.812;-122.286;2023-01-06T06:37:43;9.05;;;3.05;;
72882;SDS011;61017;37.812;-122.286;2023-01-06T06:39:41;15.15;;;3.97;;
72882;SDS011;61017;37.812;-122.286;2023-01-06T06:41:31;13.95;;;3.58;;
72882;SDS011;61017;37.812;-122.286;2023-01-06T06:43:21;8.05;;;2.78;;
72882;SDS011;61017;37.812;-122.286;2023-01-06T06:45:12;11.75;;;3.40;;
72882;SDS011;61017;37.812;-122.286;2023-01-06T06:47:02;13.23;;;3.38;;
72882;SDS011;61017;37.812;-122.286;2023-01-06T06:48:52;10.48;;;3.35;;
72882;SDS011;61017;37.812;-122.286;2023-01-06T06:50:42;13.05;;;3.75;;
72882;SDS011;61017;37.812;-122.286;2023-01-06T06:52:32;13.00;;;3.88;;
72882;SDS011;61017;37.812;-122.286;2023-01-06T06:54:22;13.30;;;3.47;;
72882;SDS011;61017;37.812;-122.286;2023-01-06T06:56:13;14.98;;;3.35;;
72882;SDS011;61017;37.812;-122.286;2023-01-06T06:58:04;11.80;;;3.58;;
72882;SDS011;61017;37.812;-122.286;2023-01-06T06:59:54;13.00;;;3.53;;
72882;SDS011;61017;37.812;-122.286;2023-01-06T07:01:45;13.05;;;2.92;;
72882;SDS011;61017;37.812;-122.286;2023-01-06T07:03:35;14.10;;;3.22;;
72882;SDS011;61017;37.812;-122.286;2023-01-06T07:05:25;10.85;;;2.90;;
72882;SDS011;61017;37.812;-122.286;2023-01-06T07:07:15;13.20;;;3.22;;
72882;SDS011;61017;37.812;-122.286;2023-01-06T07:09:05;10.38;;;3.38;;
72882;SDS011;61017;37.812;-122.286;2023-01-06T07:10:56;11.55;;;3.22;;
72882;SDS011;61017;37.812;-122.286;2023-01-06T07:12:45;12.27;;;3.00;;
72882;SDS011;61017;37.812;-122.286;2023-01-06T07:14:36;12.02;;;3.38;;
72882;SDS011;61017;37.812;-122.286;2023-01-06T07:16:26;10.60;;;3.40;;
72882;SDS011;61017;37.812;-122.286;2023-01-06T07:18:19;9.80;;;3.03;;
72882;SDS011;61017;37.812;-122.286;2023-01-06T07:20:09;9.63;;;2.90;;
72882;SDS011;61017;37.812;-122.286;2023-01-06T07:21:59;10.82;;;3.10;;
72882;SDS011;61017;37.812;-122.286;2023-01-06T07:23:50;13.15;;;3.65;;
72882;SDS011;61017;37.812;-122.286;2023-01-06T07:25:40;10.27;;;3.28;;
72882;SDS011;61017;37.812;-122.286;2023-01-06T07:27:30;10.38;;;3.10;;
72882;SDS011;61017;37.812;-122.286;2023-01-06T07:29:23;12.27;;;3.40;;
72882;SDS011;61017;37.812;-122.286;2023-01-06T07:31:13;10.13;;;3.10;;
72882;SDS011;61017;37.812;-122.286;2023-01-06T07:33:04;10.48;;;3.10;;
72882;SDS011;61017;37.812;-122.286;2023-01-06T07:34:54;9.25;;;3.22;;
72882;SDS011;61017;37.812;-122.286;2023-01-06T07:36:44;8.18;;;2.83;;
72882;SDS011;61017;37.812;-122.286;2023-01-06T07:38:34;9.85;;;3.13;;
72882;SDS011;61017;37.812;-122.286;2023-01-06T07:40:28;9.75;;;2.95;;
72882;SDS011;61017;37.812;-122.286;2023-01-06T07:42:19;10.98;;;3.45;;
72882;SDS011;61017;37.812;-122.286;2023-01-06T07:44:09;10.45;;;3.05;;
72882;SDS011;61017;37.812;-122.286;2023-01-06T07:46:00;12.52;;;3.22;;
72882;SDS011;61017;37.812;-122.286;2023-01-06T07:47:50;11.98;;;3.38;;
72882;SDS011;61017;37.812;-122.286;2023-01-06T07:49:40;14.18;;;3.50;;
72882;SDS011;61017;37.812;-122.286;2023-01-06T07:51:36;13.52;;;3.30;;
72882;SDS011;61017;37.812;-122.286;2023-01-06T07:53:26;10.10;;;3.08;;
72882;SDS011;61017;37.812;-122.286;2023-01-06T07:55:17;12.93;;;3.60;;
72882;SDS011;61017;37.812;-122.286;2023-01-06T07:57:07;9.45;;;3.03;;
72882;SDS011;61017;37.812;-122.286;2023-01-06T07:58:57;12.07;;;3.28;;
72882;SDS011;61017;37.812;-122.286;2023-01-06T08:00:47;10.75;;;3.13;;
72882;SDS011;61017;37.812;-122.286;2023-01-06T08:02:38;11.25;;;3.30;;
72882;SDS011;61017;37.812;-122.286;2023-01-06T08:04:28;11.75;;;3.17;;
72882;SDS011;61017;37.812;-122.286;2023-01-06T08:06:18;11.20;;;3.00;;
72882;SDS011;61017;37.812;-122.286;2023-01-06T08:08:09;8.38;;;2.97;;
72882;SDS011;61017;37.812;-122.286;2023-01-06T08:09:59;11.55;;;3.22;;
72882;SDS011;61017;37.812;-122.286;2023-01-06T08:11:49;11.65;;;3.05;;
72882;SDS011;61017;37.812;-122.286;2023-01-06T08:13:39;10.45;;;2.88;;
72882;SDS011;61017;37.812;-122.286;2023-01-06T08:15:29;11.32;;;3.15;;
72882;SDS011;61017;37.812;-122.286;2023-01-06T08:17:19;11.02;;;2.83;;
72882;SDS011;61017;37.812;-122.286;2023-01-06T08:19:10;8.80;;;3.13;;
72882;SDS011;61017;37.812;-122.286;2023-01-06T08:21:03;11.30;;;2.90;;
72882;SDS011;61017;37.812;-122.286;2023-01-06T08:22:56;10.90;;;3.15;;
72882;SDS011;61017;37.812;-122.286;2023-01-06T08:24:46;13.63;;;3.17;;
72882;SDS011;61017;37.812;-122.286;2023-01-06T08:26:36;10.00;;;2.90;;
72882;SDS011;61017;37.812;-122.286;2023-01-06T08:28:27;11.68;;;3.17;;
72882;SDS011;61017;37.812;-122.286;2023-01-06T08:30:17;11.23;;;3.05;;
72882;SDS011;61017;37.812;-122.286;2023-01-06T08:32:07;12.32;;;3.08;;
72882;SDS011;61017;37.812;-122.286;2023-01-06T08:33:57;10.90;;;3.10;;
72882;SDS011;61017;37.812;-122.286;2023-01-06T08:35:47;10.20;;;2.80;;
72882;SDS011;61017;37.812;-122.286;2023-01-06T08:37:38;9.93;;;3.15;;
72882;SDS011;61017;37.812;-122.286;2023-01-06T08:39:27;12.57;;;3.00;;
72882;SDS011;61017;37.812;-122.286;2023-01-06T08:41:18;13.23;;;3.40;;
72882;SDS011;61017;37.812;-122.286;2023-01-06T08:43:08;10.15;;;3.05;;
72882;SDS011;61017;37.812;-122.286;2023-01-06T08:45:00;8.75;;;2.70;;
72882;SDS011;61017;37.812;-122.286;2023-01-06T08:46:50;10.85;;;3.10;;
72882;SDS011;61017;37.812;-122.286;2023-01-06T08:48:40;11.98;;;3.20;;
72882;SDS011;61017;37.812;-122.286;2023-01-06T08:50:30;10.65;;;3.00;;
72882;SDS011;61017;37.812;-122.286;2023-01-06T08:52:20;12.55;;;2.85;;
72882;SDS011;61017;37.812;-122.286;2023-01-06T08:54:11;12.45;;;3.10;;
72882;SDS011;61017;37.812;-122.286;2023-01-06T08:56:01;8.70;;;3.03;;
72882;SDS011;61017;37.812;-122.286;2023-01-06T08:57:51;8.73;;;2.97;;
72882;SDS011;61017;37.812;-122.286;2023-01-06T08:59:41;8.13;;;2.72;;
72882;SDS011;61017;37.812;-122.286;2023-01-06T09:01:32;6.80;;;2.88;;
72882;SDS011;61017;37.812;-122.286;2023-01-06T09:03:24;8.70;;;2.38;;
72882;SDS011;61017;37.812;-122.286;2023-01-06T09:05:14;10.68;;;3.05;;
72882;SDS011;61017;37.812;-122.286;2023-01-06T09:07:04;12.05;;;2.80;;
72882;SDS011;61017;37.812;-122.286;2023-01-06T09:08:55;8.68;;;2.70;;
72882;SDS011;61017;37.812;-122.286;2023-01-06T09:10:45;9.18;;;2.70;;
72882;SDS011;61017;37.812;-122.286;2023-01-06T09:12:36;9.98;;;2.80;;
72882;SDS011;61017;37.812;-122.286;2023-01-06T09:14:26;10.82;;;2.70;;
72882;SDS011;61017;37.812;-122.286;2023-01-06T09:16:18;8.02;;;2.50;;
72882;SDS011;61017;37.812;-122.286;2023-01-06T09:18:08;7.72;;;2.38;;
72882;SDS011;61017;37.812;-122.286;2023-01-06T09:19:59;10.02;;;2.50;;
72882;SDS011;61017;37.812;-122.286;2023-01-06T09:21:49;9.65;;;2.65;;
72882;SDS011;61017;37.812;-122.286;2023-01-06T09:23:39;9.23;;;3.08;;
72882;SDS011;61017;37.812;-122.286;2023-01-06T09:25:29;11.00;;;2.50;;
72882;SDS011;61017;37.812;-122.286;2023-01-06T09:27:19;8.00;;;2.80;;
72882;SDS011;61017;37.812;-122.286;2023-01-06T09:29:10;9.93;;;2.40;;
72882;SDS011;61017;37.812;-122.286;2023-01-06T09:31:00;8.65;;;2.45;;
72882;SDS011;61017;37.812;-122.286;2023-01-06T09:32:50;9.95;;;2.80;;
72882;SDS011;61017;37.812;-122.286;2023-01-06T09:34:40;10.10;;;2.83;;
72882;SDS011;61017;37.812;-122.286;2023-01-06T09:36:30;8.77;;;2.72;;
72882;SDS011;61017;37.812;-122.286;2023-01-06T09:38:20;8.43;;;2.53;;
72882;SDS011;61017;37.812;-122.286;2023-01-06T09:40:17;12.27;;;2.88;;
72882;SDS011;61017;37.812;-122.286;2023-01-06T09:44:29;6.53;;;2.15;;
72882;SDS011;61017;37.812;-122.286;2023-01-06T09:46:22;9.60;;;2.80;;
72882;SDS011;61017;37.812;-122.286;2023-01-06T09:48:20;9.05;;;2.72;;
72882;SDS011;61017;37.812;-122.286;2023-01-06T09:50:33;7.72;;;2.40;;
72882;SDS011;61017;37.812;-122.286;2023-01-06T09:52:43;10.80;;;2.60;;
72882;SDS011;61017;37.812;-122.286;2023-01-06T09:54:44;9.90;;;2.38;;
72882;SDS011;61017;37.812;-122.286;2023-01-06T09:56:47;7.65;;;2.60;;
72882;SDS011;61017;37.812;-122.286;2023-01-06T09:58:53;8.82;;;2.45;;
72882;SDS011;61017;37.812;-122.286;2023-01-06T10:00:51;6.53;;;2.00;;
72882;SDS011;61017;37.812;-122.286;2023-01-06T10:02:43;9.75;;;2.60;;
72882;SDS011;61017;37.812;-122.286;2023-01-06T10:04:33;8.32;;;2.40;;
72882;SDS011;61017;37.812;-122.286;2023-01-06T10:06:29;7.00;;;2.33;;
72882;SDS011;61017;37.812;-122.286;2023-01-06T10:08:27;8.48;;;2.42;;
72882;SDS011;61017;37.812;-122.286;2023-01-06T10:10:41;7.82;;;2.60;;
72882;SDS011;61017;37.812;-122.286;2023-01-06T10:15:02;10.30;;;2.57;;
72882;SDS011;61017;37.812;-122.286;2023-01-06T10:23:48;6.50;;;2.45;;
72882;SDS011;61017;37.812;-122.286;2023-01-06T10:25:46;9.80;;;2.75;;
72882;SDS011;61017;37.812;-122.286;2023-01-06T10:27:44;10.73;;;2.30;;
72882;SDS011;61017;37.812;-122.286;2023-01-06T10:29:41;8.13;;;2.30;;
72882;SDS011;61017;37.812;-122.286;2023-01-06T10:31:32;6.93;;;2.20;;
72882;SDS011;61017;37.812;-122.286;2023-01-06T10:33:26;9.63;;;2.50;;
72882;SDS011;61017;37.812;-122.286;2023-01-06T10:35:24;7.05;;;2.50;;
72882;SDS011;61017;37.812;-122.286;2023-01-06T10:39:20;8.82;;;2.33;;
72882;SDS011;61017;37.812;-122.286;2023-01-06T10:41:21;9.40;;;2.40;;
72882;SDS011;61017;37.812;-122.286;2023-01-06T10:43:13;7.75;;;2.30;;
72882;SDS011;61017;37.812;-122.286;2023-01-06T10:45:03;8.00;;;2.30;;
72882;SDS011;61017;37.812;-122.286;2023-01-06T10:46:55;8.20;;;2.47;;
72882;SDS011;61017;37.812;-122.286;2023-01-06T10:48:45;6.55;;;2.20;;
72882;SDS011;61017;37.812;-122.286;2023-01-06T10:50:37;7.03;;;2.20;;
72882;SDS011;61017;37.812;-122.286;2023-01-06T10:52:27;6.75;;;2.60;;
72882;SDS011;61017;37.812;-122.286;2023-01-06T10:54:19;7.72;;;2.35;;
72882;SDS011;61017;37.812;-122.286;2023-01-06T10:56:13;6.85;;;2.33;;
72882;SDS011;61017;37.812;-122.286;2023-01-06T11:00:36;8.52;;;2.42;;
72882;SDS011;61017;37.812;-122.286;2023-01-06T11:03:24;6.43;;;2.30;;
72882;SDS011;61017;37.812;-122.286;2023-01-06T11:04:55;6.75;;;2.13;;
72882;SDS011;61017;37.812;-122.286;2023-01-06T11:06:51;10.18;;;2.30;;
72882;SDS011;61017;37.812;-122.286;2023-01-06T11:08:51;7.53;;;2.17;;
72882;SDS011;61017;37.812;-122.286;2023-01-06T11:12:43;6.97;;;2.25;;
72882;SDS011;61017;37.812;-122.286;2023-01-06T11:14:34;6.10;;;2.00;;
72882;SDS011;61017;37.812;-122.286;2023-01-06T11:16:29;8.75;;;2.60;;
72882;SDS011;61017;37.812;-122.286;2023-01-06T11:18:30;6.85;;;2.10;;
72882;SDS011;61017;37.812;-122.286;2023-01-06T11:24:26;8.10;;;2.70;;
72882;SDS011;61017;37.812;-122.286;2023-01-06T11:26:18;7.90;;;2.60;;
72882;SDS011;61017;37.812;-122.286;2023-01-06T11:30:12;7.20;;;2.33;;
72882;SDS011;61017;37.812;-122.286;2023-01-06T11:34:00;9.18;;;2.83;;
72882;SDS011;61017;37.812;-122.286;2023-01-06T11:35:52;7.55;;;2.50;;
72882;SDS011;61017;37.812;-122.286;2023-01-06T11:37:43;7.45;;;2.30;;
72882;SDS011;61017;37.812;-122.286;2023-01-06T11:39:34;9.30;;;2.60;;
72882;SDS011;61017;37.812;-122.286;2023-01-06T11:41:27;8.15;;;2.30;;
72882;SDS011;61017;37.812;-122.286;2023-01-06T11:43:28;9.52;;;2.80;;
72882;SDS011;61017;37.812;-122.286;2023-01-06T11:47:50;8.70;;;2.40;;
72882;SDS011;61017;37.812;-122.286;2023-01-06T11:49:48;8.60;;;2.53;;
72882;SDS011;61017;37.812;-122.286;2023-01-06T11:52:05;8.90;;;2.20;;
72882;SDS011;61017;37.812;-122.286;2023-01-06T11:54:21;6.60;;;2.15;;
72882;SDS011;61017;37.812;-122.286;2023-01-06T11:56:21;8.60;;;2.70;;
72882;SDS011;61017;37.812;-122.286;2023-01-06T11:58:14;7.88;;;2.35;;
72882;SDS011;61017;37.812;-122.286;2023-01-06T12:02:26;7.60;;;2.30;;
72882;SDS011;61017;37.812;-122.286;2023-01-06T12:06:37;8.07;;;2.40;;
72882;SDS011;61017;37.812;-122.286;2023-01-06T12:08:36;7.95;;;2.30;;
72882;SDS011;61017;37.812;-122.286;2023-01-06T12:10:47;10.32;;;2.72;;
72882;SDS011;61017;37.812;-122.286;2023-01-06T12:12:51;10.07;;;2.90;;
72882;SDS011;61017;37.812;-122.286;2023-01-06T12:14:42;6.38;;;2.00;;
72882;SDS011;61017;37.812;-122.286;2023-01-06T12:16:40;8.52;;;2.63;;
72882;SDS011;61017;37.812;-122.286;2023-01-06T12:18:50;9.20;;;2.53;;
72882;SDS011;61017;37.812;-122.286;2023-01-06T12:20:41;7.28;;;2.50;;
72882;SDS011;61017;37.812;-122.286;2023-01-06T12:22:36;8.65;;;2.67;;
72882;SDS011;61017;37.812;-122.286;2023-01-06T12:24:30;8.32;;;2.30;;
72882;SDS011;61017;37.812;-122.286;2023-01-06T12:26:22;8.35;;;2.70;;
72882;SDS011;61017;37.812;-122.286;2023-01-06T12:32:17;8.68;;;2.33;;
72882;SDS011;61017;37.812;-122.286;2023-01-06T12:34:27;7.40;;;2.53;;
72882;SDS011;61017;37.812;-122.286;2023-01-06T12:38:40;9.95;;;2.75;;
72882;SDS011;61017;37.812;-122.286;2023-01-06T12:40:43;6.78;;;2.30;;
72882;SDS011;61017;37.812;-122.286;2023-01-06T12:42:45;7.50;;;2.60;;
72882;SDS011;61017;37.812;-122.286;2023-01-06T12:47:03;8.25;;;2.75;;
72882;SDS011;61017;37.812;-122.286;2023-01-06T12:51:40;7.88;;;2.33;;
72882;SDS011;61017;37.812;-122.286;2023-01-06T12:53:38;9.35;;;2.60;;
72882;SDS011;61017;37.812;-122.286;2023-01-06T12:55:53;8.60;;;2.63;;
72882;SDS011;61017;37.812;-122.286;2023-01-06T12:57:57;8.98;;;2.60;;
72882;SDS011;61017;37.812;-122.286;2023-01-06T13:08:22;10.20;;;3.00;;
72882;SDS011;61017;37.812;-122.286;2023-01-06T13:10:22;10.05;;;2.92;;
72882;SDS011;61017;37.812;-122.286;2023-01-06T13:14:40;12.13;;;2.80;;
72882;SDS011;61017;37.812;-122.286;2023-01-06T13:16:50;7.60;;;2.15;;
72882;SDS011;61017;37.812;-122.286;2023-01-06T13:20:55;8.10;;;2.55;;
72882;SDS011;61017;37.812;-122.286;2023-01-06T13:34:18;10.45;;;2.83;;
72882;SDS011;61017;37.812;-122.286;2023-01-06T13:36:30;7.00;;;2.40;;
72882;SDS011;61017;37.812;-122.286;2023-01-06T13:41:09;9.05;;;2.38;;
72882;SDS011;61017;37.812;-122.286;2023-01-06T13:43:19;10.82;;;2.53;;
72882;SDS011;61017;37.812;-122.286;2023-01-06T13:45:35;8.55;;;2.75;;
72882;SDS011;61017;37.812;-122.286;2023-01-06T13:47:26;9.32;;;2.50;;
72882;SDS011;61017;37.812;-122.286;2023-01-06T13:49:18;7.55;;;2.72;;
72882;SDS011;61017;37.812;-122.286;2023-01-06T13:51:10;9.35;;;2.70;;
72882;SDS011;61017;37.812;-122.286;2023-01-06T13:53:02;12.02;;;2.65;;
72882;SDS011;61017;37.812;-122.286;2023-01-06T13:54:58;10.80;;;2.60;;
72882;SDS011;61017;37.812;-122.286;2023-01-06T13:57:09;8.63;;;2.65;;
72882;SDS011;61017;37.812;-122.286;2023-01-06T13:59:22;9.02;;;2.70;;
72882;SDS011;61017;37.812;-122.286;2023-01-06T14:03:20;13.50;;;2.53;;
72882;SDS011;61017;37.812;-122.286;2023-01-06T14:07:11;10.05;;;2.60;;
72882;SDS011;61017;37.812;-122.286;2023-01-06T14:09:02;8.73;;;3.00;;
72882;SDS011;61017;37.812;-122.286;2023-01-06T14:11:03;10.18;;;2.70;;
72882;SDS011;61017;37.812;-122.286;2023-01-06T14:13:23;10.98;;;2.63;;
72882;SDS011;61017;37.812;-122.286;2023-01-06T14:15:31;10.52;;;2.95;;
72882;SDS011;61017;37.812;-122.286;2023-01-06T14:17:30;9.80;;;3.03;;
72882;SDS011;61017;37.812;-122.286;2023-01-06T14:19:29;10.82;;;2.85;;
72882;SDS011;61017;37.812;-122.286;2023-01-06T14:21:23;10.82;;;3.00;;
72882;SDS011;61017;37.812;-122.286;2023-01-06T14:23:21;11.13;;;2.80;;
72882;SDS011;61017;37.812;-122.286;2023-01-06T14:27:10;8.98;;;2.65;;
72882;SDS011;61017;37.812;-122.286;2023-01-06T14:33:41;7.75;;;2.72;;
72882;SDS011;61017;37.812;-122.286;2023-01-06T14:35:35;10.18;;;2.75;;
72882;SDS011;61017;37.812;-122.286;2023-01-06T14:37:37;9.43;;;2.47;;
72882;SDS011;61017;37.812;-122.286;2023-01-06T14:39:31;8.70;;;2.60;;
72882;SDS011;61017;37.812;-122.286;2023-01-06T14:41:27;9.13;;;2.55;;
72882;SDS011;61017;37.812;-122.286;2023-01-06T14:45:22;9.80;;;2.50;;
72882;SDS011;61017;37.812;-122.286;2023-01-06T14:49:56;6.80;;;2.28;;
72882;SDS011;61017;37.812;-122.286;2023-01-06T14:51:56;9.15;;;2.63;;
72882;SDS011;61017;37.812;-122.286;2023-01-06T14:53:58;8.43;;;2.40;;
72882;SDS011;61017;37.812;-122.286;2023-01-06T14:55:52;10.27;;;2.75;;
72882;SDS011;61017;37.812;-122.286;2023-01-06T14:57:43;6.93;;;2.30;;
72882;SDS011;61017;37.812;-122.286;2023-01-06T14:59:33;10.68;;;3.00;;
72882;SDS011;61017;37.812;-122.286;2023-01-06T15:01:32;10.30;;;2.78;;
72882;SDS011;61017;37.812;-122.286;2023-01-06T15:03:23;9.05;;;2.78;;
72882;SDS011;61017;37.812;-122.286;2023-01-06T15:05:19;9.90;;;2.80;;
72882;SDS011;61017;37.812;-122.286;2023-01-06T15:07:19;7.93;;;2.67;;
72882;SDS011;61017;37.812;-122.286;2023-01-06T15:09:12;11.45;;;3.00;;
72882;SDS011;61017;37.812;-122.286;2023-01-06T15:11:12;12.75;;;2.80;;
72882;SDS011;61017;37.812;-122.286;2023-01-06T15:13:22;8.57;;;2.55;;
72882;SDS011;61017;37.812;-122.286;2023-01-06T15:17:19;12.65;;;3.05;;
72882;SDS011;61017;37.812;-122.286;2023-01-06T15:19:12;14.57;;;3.22;;
72882;SDS011;61017;37.812;-122.286;2023-01-06T15:21:03;8.65;;;2.60;;
72882;SDS011;61017;37.812;-122.286;2023-01-06T15:22:54;11.55;;;2.92;;
72882;SDS011;61017;37.812;-122.286;2023-01-06T15:24:45;10.68;;;2.55;;
72882;SDS011;61017;37.812;-122.286;2023-01-06T15:26:36;7.18;;;2.70;;